메인 페이지
METAR-TAF:

METAR-TAF

공항 :

니노이 아키노 국제공항

마닐라, 필리핀

위도: 14-31N, 경도: 121-00E, 고도: 14m

현재 날씨관측

예보는 1 시간 3분 전, 14:00시(UTC)에 발표되었습니다.
4kt풍과 동북동풍을 오가는
온도 28°C
습도 89%
기압 1009 hPa
시정: 9000m
고도 2200ft 상공 구름 보통
고도 9000ft 상공 흐림
약한비

METAR: RPLL 251400Z 01004KT 350V060 9000 -RA SCT022 OVC090 28/26 Q1009 NOSIG RMK A2980

시각: 23:03 (15:03 UTC)

예보

예보는 4 시간 3분 전, 11:00시(UTC)에 발표되었습니다.
예보 대상 시간: 25일 12시부터 26일 18시까지 (UTC)
동남동6kt
시정: 9000m
고도 2300ft 상공 구름 보통
고도 9000ft 상공 흐림
약한비
전환 중
25일 14시부터 25일 16시까지 (UTC)
7kt
일시적
25일 18시부터 25일 24시까지 (UTC)
15kt
시정: 5000m
고도 2200ft 상공 구름 조금, 적란운.
고도 2300ft 상공 구름 보통
고도 8000ft 상공 흐림
소나기
일시적
26일 00시부터 26일 06시까지 (UTC)
북북서17kt, 순간 최대 풍속 27kt
시정: 4000m
고도 2000ft 상공 구름 조금, 적란운.
고도 2200ft 상공 구름 많음
고도 7000ft 상공 흐림
강한소나기,

TAF: RPLL 251100Z 2512/2618 11006KT 9000 -RA SCT023 OVC090 TX29/2607Z TN26/2521Z BECMG 2514/2516 36007KT TEMPO 2518/2524 35015KT 5000 SHRA FEW022CB SCT023 OVC080 TEMPO 2600/2606 34017G27KT 4000 +SHRA FEW020CB BKN022 OVC070

4,000개 이상의 공항 관측 자료 및 예보 (METAR 및 TAF 보고).

지도상에서 검색 가능한 기상관측소가 노란 점과 빨간 점으로 표시되어 있습니다.

기상관측소 명을 보려면 표시 위로 마우스를 이동하세요.

날씨 관측과 예보를 보려면 클릭하세요.

지도 변경 : 확대하려면 엑스 표시가 있는 녹색 버튼, 축소하려면 빼기 표시가 있는 녹색 버튼, 다음 페이지의 지도를 보려면 녹색 화살표를 클릭하세요.


METAR-TAF: